sensor_id;sensor_type;location;lat;lon;timestamp;pressure;altitude;pressure_sealevel;temperature;humidity
63556;BME280;49700;48.072;7.800;2023-07-24T00:00:24;98684.50;;;22.13;nan
63556;BME280;49700;48.072;7.800;2023-07-24T00:02:52;98688.41;;;22.10;nan
63556;BME280;49700;48.072;7.800;2023-07-24T00:05:19;98686.13;;;22.07;nan
63556;BME280;49700;48.072;7.800;2023-07-24T00:07:44;98675.19;;;22.02;nan
63556;BME280;49700;48.072;7.800;2023-07-24T00:10:10;98691.44;;;22.01;nan
63556;BME280;49700;48.072;7.800;2023-07-24T00:12:35;98688.13;;;21.99;nan
63556;BME280;49700;48.072;7.800;2023-07-24T00:15:00;98681.09;;;21.98;nan
63556;BME280;49700;48.072;7.800;2023-07-24T00:17:26;98687.88;;;21.94;nan
63556;BME280;49700;48.072;7.800;2023-07-24T00:19:51;98688.66;;;21.87;nan
63556;BME280;49700;48.072;7.800;2023-07-24T00:22:17;98699.91;;;21.83;nan
63556;BME280;49700;48.072;7.800;2023-07-24T00:24:42;98695.94;;;21.79;nan
63556;BME280;49700;48.072;7.800;2023-07-24T00:27:08;98683.38;;;21.73;nan
63556;BME280;49700;48.072;7.800;2023-07-24T00:29:33;98689.28;;;21.68;nan
63556;BME280;49700;48.072;7.800;2023-07-24T00:31:58;98682.84;;;21.62;nan
63556;BME280;49700;48.072;7.800;2023-07-24T00:34:24;98684.25;;;21.58;nan
63556;BME280;49700;48.072;7.800;2023-07-24T00:36:49;98685.47;;;21.56;nan
63556;BME280;49700;48.072;7.800;2023-07-24T00:39:15;98679.31;;;21.55;nan
63556;BME280;49700;48.072;7.800;2023-07-24T00:41:40;98679.31;;;21.55;nan
63556;BME280;49700;48.072;7.800;2023-07-24T00:44:06;98679.47;;;21.54;nan
63556;BME280;49700;48.072;7.800;2023-07-24T00:46:32;98679.47;;;21.54;nan
63556;BME280;49700;48.072;7.800;2023-07-24T00:48:59;98683.94;;;21.47;nan
63556;BME280;49700;48.072;7.800;2023-07-24T00:51:26;98686.06;;;21.36;nan
63556;BME280;49700;48.072;7.800;2023-07-24T00:53:57;98683.53;;;21.28;nan
63556;BME280;49700;48.072;7.800;2023-07-24T00:56:23;98681.59;;;21.22;nan
63556;BME280;49700;48.072;7.800;2023-07-24T00:58:48;98669.00;;;21.16;nan
63556;BME280;49700;48.072;7.800;2023-07-24T01:01:16;98670.56;;;21.10;nan
63556;BME280;49700;48.072;7.800;2023-07-24T01:03:41;98666.00;;;21.04;nan
63556;BME280;49700;48.072;7.800;2023-07-24T01:06:09;98646.66;;;21.02;nan
63556;BME280;49700;48.072;7.800;2023-07-24T01:08:35;98647.03;;;20.99;nan
63556;BME280;49700;48.072;7.800;2023-07-24T01:11:05;98644.09;;;20.94;nan
63556;BME280;49700;48.072;7.800;2023-07-24T01:13:36;98636.66;;;20.89;nan
63556;BME280;49700;48.072;7.800;2023-07-24T01:16:14;98635.19;;;20.87;nan
63556;BME280;49700;48.072;7.800;2023-07-24T01:18:40;98633.72;;;20.84;nan
63556;BME280;49700;48.072;7.800;2023-07-24T01:21:09;98630.66;;;20.87;nan
63556;BME280;49700;48.072;7.800;2023-07-24T01:23:57;98634.81;;;20.90;nan
63556;BME280;49700;48.072;7.800;2023-07-24T01:26:24;98624.13;;;20.90;nan
63556;BME280;49700;48.072;7.800;2023-07-24T01:28:50;98619.63;;;20.90;nan
63556;BME280;49700;48.072;7.800;2023-07-24T01:31:16;98617.78;;;20.91;nan
63556;BME280;49700;48.072;7.800;2023-07-24T01:33:43;98611.81;;;20.89;nan
63556;BME280;49700;48.072;7.800;2023-07-24T01:36:09;98610.53;;;20.85;nan
63556;BME280;49700;48.072;7.800;2023-07-24T01:38:35;98607.22;;;20.83;nan
63556;BME280;49700;48.072;7.800;2023-07-24T01:41:02;98613.13;;;20.78;nan
63556;BME280;49700;48.072;7.800;2023-07-24T01:43:29;98608.16;;;20.75;nan
63556;BME280;49700;48.072;7.800;2023-07-24T01:45:55;98606.69;;;20.72;nan
63556;BME280;49700;48.072;7.800;2023-07-24T01:48:20;98610.19;;;20.73;nan
63556;BME280;49700;48.072;7.800;2023-07-24T01:50:46;98610.19;;;20.73;nan
63556;BME280;49700;48.072;7.800;2023-07-24T01:53:11;98608.53;;;20.72;nan
63556;BME280;49700;48.072;7.800;2023-07-24T01:55:37;98617.38;;;20.72;nan
63556;BME280;49700;48.072;7.800;2023-07-24T01:58:02;98621.88;;;20.72;nan
63556;BME280;49700;48.072;7.800;2023-07-24T02:00:28;98610.50;;;20.63;nan
63556;BME280;49700;48.072;7.800;2023-07-24T02:02:59;98614.25;;;20.54;nan
63556;BME280;49700;48.072;7.800;2023-07-24T02:05:26;98625.00;;;20.46;nan
63556;BME280;49700;48.072;7.800;2023-07-24T02:07:51;98620.22;;;20.41;nan
63556;BME280;49700;48.072;7.800;2023-07-24T02:10:17;98607.25;;;20.38;nan
63556;BME280;49700;48.072;7.800;2023-07-24T02:12:42;98600.72;;;20.41;nan
63556;BME280;49700;48.072;7.800;2023-07-24T02:15:08;98601.38;;;20.43;nan
63556;BME280;49700;48.072;7.800;2023-07-24T02:17:34;98583.50;;;20.43;nan
63556;BME280;49700;48.072;7.800;2023-07-24T02:20:00;98586.56;;;20.40;nan
63556;BME280;49700;48.072;7.800;2023-07-24T02:22:26;98578.72;;;20.39;nan
63556;BME280;49700;48.072;7.800;2023-07-24T02:24:52;98580.56;;;20.38;nan
63556;BME280;49700;48.072;7.800;2023-07-24T02:27:29;98574.63;;;20.36;nan
63556;BME280;49700;48.072;7.800;2023-07-24T02:29:57;98578.94;;;20.37;nan
63556;BME280;49700;48.072;7.800;2023-07-24T02:32:22;98577.28;;;20.36;nan
63556;BME280;49700;48.072;7.800;2023-07-24T02:34:52;98579.09;;;20.36;nan
63556;BME280;49700;48.072;7.800;2023-07-24T02:37:18;98576.91;;;20.39;nan
63556;BME280;49700;48.072;7.800;2023-07-24T02:39:44;98577.72;;;20.40;nan
63556;BME280;49700;48.072;7.800;2023-07-24T02:42:09;98576.91;;;20.39;nan
63556;BME280;49700;48.072;7.800;2023-07-24T02:44:35;98580.84;;;20.43;nan
63556;BME280;49700;48.072;7.800;2023-07-24T02:47:01;98579.47;;;20.47;nan
63556;BME280;49700;48.072;7.800;2023-07-24T02:49:27;98576.59;;;20.49;nan
63556;BME280;49700;48.072;7.800;2023-07-24T02:51:52;98571.91;;;20.51;nan
63556;BME280;49700;48.072;7.800;2023-07-24T02:54:18;98573.41;;;20.53;nan
63556;BME280;49700;48.072;7.800;2023-07-24T02:56:43;98574.06;;;20.55;nan
63556;BME280;49700;48.072;7.800;2023-07-24T02:59:08;98571.03;;;20.59;nan
63556;BME280;49700;48.072;7.800;2023-07-24T03:01:34;98575.16;;;20.61;nan
63556;BME280;49700;48.072;7.800;2023-07-24T03:03:59;98574.94;;;20.63;nan
63556;BME280;49700;48.072;7.800;2023-07-24T03:06:25;98573.97;;;20.64;nan
63556;BME280;49700;48.072;7.800;2023-07-24T03:08:51;98583.59;;;20.65;nan
63556;BME280;49700;48.072;7.800;2023-07-24T03:11:16;98581.75;;;20.65;nan
63556;BME280;49700;48.072;7.800;2023-07-24T03:13:41;98595.09;;;20.65;nan
63556;BME280;49700;48.072;7.800;2023-07-24T03:16:08;98594.28;;;20.65;nan
63556;BME280;49700;48.072;7.800;2023-07-24T03:18:33;98584.44;;;20.65;nan
63556;BME280;49700;48.072;7.800;2023-07-24T03:20:59;98585.28;;;20.66;nan
63556;BME280;49700;48.072;7.800;2023-07-24T03:23:24;98588.78;;;20.66;nan
63556;BME280;49700;48.072;7.800;2023-07-24T03:25:50;98586.91;;;20.67;nan
63556;BME280;49700;48.072;7.800;2023-07-24T03:28:16;98592.06;;;20.68;nan
63556;BME280;49700;48.072;7.800;2023-07-24T03:30:42;98598.25;;;20.69;nan
63556;BME280;49700;48.072;7.800;2023-07-24T03:33:07;98593.91;;;20.68;nan
63556;BME280;49700;48.072;7.800;2023-07-24T03:35:33;98610.13;;;20.66;nan
63556;BME280;49700;48.072;7.800;2023-07-24T03:37:59;98595.31;;;20.64;nan
63556;BME280;49700;48.072;7.800;2023-07-24T03:40:25;98586.81;;;20.60;nan
63556;BME280;49700;48.072;7.800;2023-07-24T03:42:50;98581.03;;;20.57;nan
63556;BME280;49700;48.072;7.800;2023-07-24T03:45:16;98579.47;;;20.47;nan
63556;BME280;49700;48.072;7.800;2023-07-24T03:47:41;98566.25;;;20.39;nan
63556;BME280;49700;48.072;7.800;2023-07-24T03:50:07;98558.34;;;20.31;nan
63556;BME280;49700;48.072;7.800;2023-07-24T03:52:32;98556.41;;;20.25;nan
63556;BME280;49700;48.072;7.800;2023-07-24T03:54:58;98563.78;;;20.23;nan
63556;BME280;49700;48.072;7.800;2023-07-24T03:57:23;98563.13;;;20.21;nan
63556;BME280;49700;48.072;7.800;2023-07-24T03:59:48;98566.78;;;20.20;nan
63556;BME280;49700;48.072;7.800;2023-07-24T04:02:14;98569.47;;;20.20;nan
63556;BME280;49700;48.072;7.800;2023-07-24T04:04:39;98578.31;;;20.20;nan
63556;BME280;49700;48.072;7.800;2023-07-24T04:07:05;98590.44;;;20.23;nan
63556;BME280;49700;48.072;7.800;2023-07-24T04:09:30;98603.41;;;20.26;nan
63556;BME280;49700;48.072;7.800;2023-07-24T04:11:56;98602.22;;;20.28;nan
63556;BME280;49700;48.072;7.800;2023-07-24T04:14:21;98611.31;;;20.34;nan
63556;BME280;49700;48.072;7.800;2023-07-24T04:16:46;98625.28;;;20.36;nan
63556;BME280;49700;48.072;7.800;2023-07-24T04:19:12;98629.22;;;20.40;nan
63556;BME280;49700;48.072;7.800;2023-07-24T04:21:37;98629.88;;;20.42;nan
63556;BME280;49700;48.072;7.800;2023-07-24T04:24:03;98628.69;;;20.45;nan
63556;BME280;49700;48.072;7.800;2023-07-24T04:26:28;98635.50;;;20.47;nan
63556;BME280;49700;48.072;7.800;2023-07-24T04:28:54;98638.16;;;20.47;nan
63556;BME280;49700;48.072;7.800;2023-07-24T04:31:19;98648.47;;;20.50;nan
63556;BME280;49700;48.072;7.800;2023-07-24T04:33:45;98647.09;;;20.54;nan
63556;BME280;49700;48.072;7.800;2023-07-24T04:36:10;98636.06;;;20.58;nan
63556;BME280;49700;48.072;7.800;2023-07-24T04:38:35;98638.38;;;20.61;nan
63556;BME280;49700;48.072;7.800;2023-07-24T04:41:01;98630.00;;;20.64;nan
63556;BME280;49700;48.072;7.800;2023-07-24T04:43:27;98639.47;;;20.66;nan
63556;BME280;49700;48.072;7.800;2023-07-24T04:45:53;98659.63;;;20.69;nan
63556;BME280;49700;48.072;7.800;2023-07-24T04:48:18;98665.13;;;20.67;nan
63556;BME280;49700;48.072;7.800;2023-07-24T04:50:44;98668.63;;;20.68;nan
63556;BME280;49700;48.072;7.800;2023-07-24T04:53:09;98678.28;;;20.69;nan
63556;BME280;49700;48.072;7.800;2023-07-24T04:55:34;98678.91;;;20.71;nan
63556;BME280;49700;48.072;7.800;2023-07-24T04:58:00;98682.88;;;20.75;nan
63556;BME280;49700;48.072;7.800;2023-07-24T05:00:25;98685.34;;;20.76;nan
63556;BME280;49700;48.072;7.800;2023-07-24T05:02:52;98665.84;;;20.76;nan
63556;BME280;49700;48.072;7.800;2023-07-24T05:05:17;98688.22;;;20.75;nan
63556;BME280;49700;48.072;7.800;2023-07-24T05:07:42;98691.91;;;20.74;nan
63556;BME280;49700;48.072;7.800;2023-07-24T05:10:08;98674.06;;;20.74;nan
63556;BME280;49700;48.072;7.800;2023-07-24T05:12:33;98656.56;;;20.72;nan
63556;BME280;49700;48.072;7.800;2023-07-24T05:14:59;98652.81;;;20.66;nan
63556;BME280;49700;48.072;7.800;2023-07-24T05:17:24;98650.53;;;20.63;nan
63556;BME280;49700;48.072;7.800;2023-07-24T05:19:49;98648.03;;;20.62;nan
63556;BME280;49700;48.072;7.800;2023-07-24T05:22:15;98641.66;;;20.63;nan
63556;BME280;49700;48.072;7.800;2023-07-24T05:24:40;98638.44;;;20.67;nan
63556;BME280;49700;48.072;7.800;2023-07-24T05:27:06;98636.69;;;20.74;nan
63556;BME280;49700;48.072;7.800;2023-07-24T05:29:31;98622.41;;;20.82;nan
63556;BME280;49700;48.072;7.800;2023-07-24T05:31:57;98618.78;;;20.90;nan
63556;BME280;49700;48.072;7.800;2023-07-24T05:34:24;98604.50;;;20.97;nan
63556;BME280;49700;48.072;7.800;2023-07-24T05:36:49;98592.81;;;20.98;nan
63556;BME280;49700;48.072;7.800;2023-07-24T05:39:15;98603.88;;;20.95;nan
63556;BME280;49700;48.072;7.800;2023-07-24T05:41:40;98611.63;;;20.90;nan
63556;BME280;49700;48.072;7.800;2023-07-24T05:44:05;98621.66;;;20.88;nan
63556;BME280;49700;48.072;7.800;2023-07-24T05:46:31;98615.69;;;20.86;nan
63556;BME280;49700;48.072;7.800;2023-07-24T05:48:56;98623.69;;;20.86;nan
63556;BME280;49700;48.072;7.800;2023-07-24T05:51:22;98624.31;;;20.88;nan
63556;BME280;49700;48.072;7.800;2023-07-24T05:53:49;98634.25;;;20.94;nan
63556;BME280;49700;48.072;7.800;2023-07-24T05:56:14;98643.16;;;21.02;nan
63556;BME280;49700;48.072;7.800;2023-07-24T05:58:40;98649.59;;;21.07;nan
63556;BME280;49700;48.072;7.800;2023-07-24T06:01:05;98648.00;;;21.13;nan
63556;BME280;49700;48.072;7.800;2023-07-24T06:03:33;98636.38;;;21.20;nan
63556;BME280;49700;48.072;7.800;2023-07-24T06:05:58;98637.91;;;21.30;nan
63556;BME280;49700;48.072;7.800;2023-07-24T06:08:24;98641.31;;;21.38;nan
63556;BME280;49700;48.072;7.800;2023-07-24T06:10:50;98629.50;;;21.48;nan
63556;BME280;49700;48.072;7.800;2023-07-24T06:13:19;98630.19;;;21.56;nan
63556;BME280;49700;48.072;7.800;2023-07-24T06:15:47;98629.47;;;21.69;nan
63556;BME280;49700;48.072;7.800;2023-07-24T06:18:12;98622.63;;;21.88;nan
63556;BME280;49700;48.072;7.800;2023-07-24T06:20:38;98633.66;;;22.06;nan
63556;BME280;49700;48.072;7.800;2023-07-24T06:23:03;98630.50;;;22.24;nan
63556;BME280;49700;48.072;7.800;2023-07-24T06:25:32;98638.44;;;22.39;nan
63556;BME280;49700;48.072;7.800;2023-07-24T06:27:58;98643.41;;;22.49;nan
63556;BME280;49700;48.072;7.800;2023-07-24T06:30:23;98643.06;;;22.59;nan
63556;BME280;49700;48.072;7.800;2023-07-24T06:32:49;98661.19;;;22.63;nan
63556;BME280;49700;48.072;7.800;2023-07-24T06:35:14;98666.56;;;22.70;nan
63556;BME280;49700;48.072;7.800;2023-07-24T06:37:39;98673.63;;;22.78;nan
63556;BME280;49700;48.072;7.800;2023-07-24T06:40:08;98683.13;;;22.87;nan
63556;BME280;49700;48.072;7.800;2023-07-24T06:42:34;98673.94;;;22.96;nan
63556;BME280;49700;48.072;7.800;2023-07-24T06:44:59;98681.97;;;23.03;nan
63556;BME280;49700;48.072;7.800;2023-07-24T06:47:25;98697.69;;;23.12;nan
63556;BME280;49700;48.072;7.800;2023-07-24T06:49:51;98716.84;;;23.16;nan
63556;BME280;49700;48.072;7.800;2023-07-24T06:52:16;98694.78;;;23.14;nan
63556;BME280;49700;48.072;7.800;2023-07-24T06:54:42;98680.13;;;23.03;nan
63556;BME280;49700;48.072;7.800;2023-07-24T06:57:07;98662.97;;;22.91;nan
63556;BME280;49700;48.072;7.800;2023-07-24T06:59:33;98688.03;;;22.77;nan
63556;BME280;49700;48.072;7.800;2023-07-24T07:01:58;98691.03;;;22.60;nan
63556;BME280;49700;48.072;7.800;2023-07-24T07:04:24;98661.53;;;22.47;nan
63556;BME280;49700;48.072;7.800;2023-07-24T07:06:49;98663.34;;;22.40;nan
63556;BME280;49700;48.072;7.800;2023-07-24T07:09:14;98665.53;;;22.29;nan
63556;BME280;49700;48.072;7.800;2023-07-24T07:11:40;98672.06;;;22.20;nan
63556;BME280;49700;48.072;7.800;2023-07-24T07:14:05;98671.16;;;22.13;nan
63556;BME280;49700;48.072;7.800;2023-07-24T07:16:34;98677.53;;;22.12;nan
63556;BME280;49700;48.072;7.800;2023-07-24T07:18:59;98684.13;;;22.16;nan
63556;BME280;49700;48.072;7.800;2023-07-24T07:21:24;98688.09;;;22.20;nan
63556;BME280;49700;48.072;7.800;2023-07-24T07:23:50;98689.75;;;22.21;nan
63556;BME280;49700;48.072;7.800;2023-07-24T07:26:16;98686.44;;;22.19;nan
63556;BME280;49700;48.072;7.800;2023-07-24T07:28:42;98675.09;;;22.17;nan
63556;BME280;49700;48.072;7.800;2023-07-24T07:31:10;98689.47;;;22.16;nan
63556;BME280;49700;48.072;7.800;2023-07-24T07:33:38;98668.47;;;22.13;nan
63556;BME280;49700;48.072;7.800;2023-07-24T07:36:04;98688.84;;;22.14;nan
63556;BME280;49700;48.072;7.800;2023-07-24T07:38:31;98684.50;;;22.13;nan
63556;BME280;49700;48.072;7.800;2023-07-24T07:41:04;98686.75;;;22.09;nan
63556;BME280;49700;48.072;7.800;2023-07-24T07:43:29;98675.81;;;22.04;nan
63556;BME280;49700;48.072;7.800;2023-07-24T07:45:55;98663.41;;;21.97;nan
63556;BME280;49700;48.072;7.800;2023-07-24T07:48:22;98654.50;;;21.90;nan
63556;BME280;49700;48.072;7.800;2023-07-24T07:50:51;98639.25;;;21.83;nan
63556;BME280;49700;48.072;7.800;2023-07-24T07:53:17;98656.09;;;21.84;nan
63556;BME280;49700;48.072;7.800;2023-07-24T07:55:42;98671.16;;;21.85;nan
63556;BME280;49700;48.072;7.800;2023-07-24T07:58:08;98645.03;;;21.87;nan
63556;BME280;49700;48.072;7.800;2023-07-24T08:00:34;98633.75;;;21.92;nan
63556;BME280;49700;48.072;7.800;2023-07-24T08:02:59;98645.53;;;21.97;nan
63556;BME280;49700;48.072;7.800;2023-07-24T08:05:25;98632.38;;;22.02;nan
63556;BME280;49700;48.072;7.800;2023-07-24T08:07:50;98625.00;;;22.04;nan
63556;BME280;49700;48.072;7.800;2023-07-24T08:10:15;98613.09;;;22.07;nan
63556;BME280;49700;48.072;7.800;2023-07-24T08:12:42;98593.34;;;22.08;nan
63556;BME280;49700;48.072;7.800;2023-07-24T08:15:08;98588.88;;;22.15;nan
63556;BME280;49700;48.072;7.800;2023-07-24T08:17:33;98579.91;;;22.23;nan
63556;BME280;49700;48.072;7.800;2023-07-24T08:19:59;98571.69;;;22.31;nan
63556;BME280;49700;48.072;7.800;2023-07-24T08:22:24;98562.06;;;22.43;nan
63556;BME280;49700;48.072;7.800;2023-07-24T08:24:50;98558.63;;;22.56;nan
63556;BME280;49700;48.072;7.800;2023-07-24T08:27:16;98562.38;;;22.68;nan
63556;BME280;49700;48.072;7.800;2023-07-24T08:29:42;98569.44;;;22.83;nan
63556;BME280;49700;48.072;7.800;2023-07-24T08:32:07;98555.06;;;22.97;nan
63556;BME280;49700;48.072;7.800;2023-07-24T08:34:33;98547.06;;;23.04;nan
63556;BME280;49700;48.072;7.800;2023-07-24T08:36:58;98539.84;;;23.11;nan
63556;BME280;49700;48.072;7.800;2023-07-24T08:39:24;98551.00;;;23.14;nan
63556;BME280;49700;48.072;7.800;2023-07-24T08:41:49;98559.84;;;23.15;nan
63556;BME280;49700;48.072;7.800;2023-07-24T08:44:15;98572.19;;;23.09;nan
63556;BME280;49700;48.072;7.800;2023-07-24T08:46:42;98587.41;;;23.02;nan
63556;BME280;49700;48.072;7.800;2023-07-24T08:49:14;98599.59;;;22.98;nan
63556;BME280;49700;48.072;7.800;2023-07-24T08:51:41;98616.41;;;22.92;nan
63556;BME280;49700;48.072;7.800;2023-07-24T08:54:07;98634.91;;;22.87;nan
63556;BME280;49700;48.072;7.800;2023-07-24T08:56:33;98647.25;;;22.81;nan
63556;BME280;49700;48.072;7.800;2023-07-24T08:58:58;98645.56;;;22.73;nan
63556;BME280;49700;48.072;7.800;2023-07-24T09:01:24;98608.28;;;22.65;nan
63556;BME280;49700;48.072;7.800;2023-07-24T09:03:50;98589.09;;;22.55;nan
63556;BME280;49700;48.072;7.800;2023-07-24T09:06:15;98597.09;;;22.48;nan
63556;BME280;49700;48.072;7.800;2023-07-24T09:08:42;98640.88;;;22.41;nan
63556;BME280;49700;48.072;7.800;2023-07-24T09:11:09;98670.28;;;22.34;nan
63556;BME280;49700;48.072;7.800;2023-07-24T09:13:36;98683.00;;;22.25;nan
63556;BME280;49700;48.072;7.800;2023-07-24T09:16:02;98690.16;;;22.18;nan
63556;BME280;49700;48.072;7.800;2023-07-24T09:18:44;98739.03;;;22.12;nan
63556;BME280;49700;48.072;7.800;2023-07-24T09:21:10;98773.94;;;22.04;nan
63556;BME280;49700;48.072;7.800;2023-07-24T09:23:38;98794.75;;;21.87;nan
63556;BME280;49700;48.072;7.800;2023-07-24T09:26:08;98821.31;;;21.74;nan
63556;BME280;49700;48.072;7.800;2023-07-24T09:28:34;98806.38;;;21.58;nan
63556;BME280;49700;48.072;7.800;2023-07-24T09:31:00;98798.19;;;21.45;nan
63556;BME280;49700;48.072;7.800;2023-07-24T09:33:37;98784.66;;;21.31;nan
63556;BME280;49700;48.072;7.800;2023-07-24T09:36:04;98789.44;;;21.21;nan
63556;BME280;49700;48.072;7.800;2023-07-24T09:38:30;98752.72;;;21.08;nan
63556;BME280;49700;48.072;7.800;2023-07-24T09:40:56;98763.31;;;21.02;nan
63556;BME280;49700;48.072;7.800;2023-07-24T09:43:24;98775.84;;;21.01;nan
63556;BME280;49700;48.072;7.800;2023-07-24T09:45:50;98786.69;;;20.99;nan
63556;BME280;49700;48.072;7.800;2023-07-24T09:48:17;98753.63;;;21.00;nan
63556;BME280;49700;48.072;7.800;2023-07-24T09:50:48;98744.78;;;21.00;nan
63556;BME280;49700;48.072;7.800;2023-07-24T09:53:21;98719.94;;;20.99;nan
63556;BME280;49700;48.072;7.800;2023-07-24T09:55:58;98703.38;;;20.89;nan
63556;BME280;49700;48.072;7.800;2023-07-24T09:58:25;98695.09;;;20.84;nan
63556;BME280;49700;48.072;7.800;2023-07-24T10:00:52;98710.41;;;20.75;nan
63556;BME280;49700;48.072;7.800;2023-07-24T10:03:17;98745.63;;;20.71;nan
63556;BME280;49700;48.072;7.800;2023-07-24T10:05:47;98799.38;;;20.68;nan
63556;BME280;49700;48.072;7.800;2023-07-24T10:08:17;98790.53;;;20.67;nan
63556;BME280;49700;48.072;7.800;2023-07-24T10:10:42;98788.91;;;20.66;nan
63556;BME280;49700;48.072;7.800;2023-07-24T10:13:09;98794.41;;;20.65;nan
63556;BME280;49700;48.072;7.800;2023-07-24T10:15:39;98779.41;;;20.64;nan
63556;BME280;49700;48.072;7.800;2023-07-24T10:18:07;98764.13;;;20.58;nan
63556;BME280;49700;48.072;7.800;2023-07-24T10:20:40;98764.66;;;20.53;nan
63556;BME280;49700;48.072;7.800;2023-07-24T10:23:08;98725.81;;;20.50;nan
63556;BME280;49700;48.072;7.800;2023-07-24T10:25:35;98646.63;;;20.36;nan
63556;BME280;49700;48.072;7.800;2023-07-24T10:28:11;98612.22;;;20.26;nan
63556;BME280;49700;48.072;7.800;2023-07-24T10:30:39;98523.69;;;20.16;nan
63556;BME280;49700;48.072;7.800;2023-07-24T10:33:12;98544.09;;;20.24;nan
63556;BME280;49700;48.072;7.800;2023-07-24T10:36:03;98574.53;;;20.44;nan
63556;BME280;49700;48.072;7.800;2023-07-24T10:38:34;98585.63;;;20.63;nan
63556;BME280;49700;48.072;7.800;2023-07-24T10:41:02;98594.88;;;20.82;nan
63556;BME280;49700;48.072;7.800;2023-07-24T10:43:29;98607.44;;;21.03;nan
63556;BME280;49700;48.072;7.800;2023-07-24T10:45:54;98604.84;;;21.31;nan
63556;BME280;49700;48.072;7.800;2023-07-24T10:48:22;98616.69;;;21.64;nan
63556;BME280;49700;48.072;7.800;2023-07-24T10:50:49;98622.66;;;21.95;nan
63556;BME280;49700;48.072;7.800;2023-07-24T10:53:17;98625.16;;;22.24;nan
63556;BME280;49700;48.072;7.800;2023-07-24T10:55:44;98646.94;;;22.56;nan
63556;BME280;49700;48.072;7.800;2023-07-24T10:58:11;98642.94;;;22.80;nan
63556;BME280;49700;48.072;7.800;2023-07-24T11:00:40;98654.78;;;22.99;nan
63556;BME280;49700;48.072;7.800;2023-07-24T11:03:13;98644.53;;;23.16;nan
63556;BME280;49700;48.072;7.800;2023-07-24T11:05:43;98644.59;;;23.36;nan
63556;BME280;49700;48.072;7.800;2023-07-24T11:08:14;98629.97;;;23.58;nan
63556;BME280;49700;48.072;7.800;2023-07-24T11:10:53;98627.50;;;23.83;nan
63556;BME280;49700;48.072;7.800;2023-07-24T11:13:23;98631.22;;;24.02;nan
63556;BME280;49700;48.072;7.800;2023-07-24T11:15:52;98624.19;;;24.15;nan
63556;BME280;49700;48.072;7.800;2023-07-24T11:18:19;98634.28;;;24.26;nan
63556;BME280;49700;48.072;7.800;2023-07-24T11:20:52;98639.19;;;24.42;nan
63556;BME280;49700;48.072;7.800;2023-07-24T11:23:18;98635.69;;;24.55;nan
63556;BME280;49700;48.072;7.800;2023-07-24T11:25:44;98637.06;;;24.71;nan
63556;BME280;49700;48.072;7.800;2023-07-24T11:28:14;98631.22;;;24.87;nan
63556;BME280;49700;48.072;7.800;2023-07-24T11:30:40;98632.16;;;25.06;nan
63556;BME280;49700;48.072;7.800;2023-07-24T11:33:10;98632.25;;;25.31;nan
63556;BME280;49700;48.072;7.800;2023-07-24T11:35:36;98635.09;;;25.36;nan
63556;BME280;49700;48.072;7.800;2023-07-24T11:38:07;98641.25;;;25.44;nan
63556;BME280;49700;48.072;7.800;2023-07-24T11:40:43;98643.94;;;25.44;nan
63556;BME280;49700;48.072;7.800;2023-07-24T11:43:17;98633.78;;;25.46;nan
63556;BME280;49700;48.072;7.800;2023-07-24T11:45:47;98638.00;;;25.35;nan
63556;BME280;49700;48.072;7.800;2023-07-24T11:48:23;98645.53;;;25.13;nan
63556;BME280;49700;48.072;7.800;2023-07-24T11:50:59;98638.84;;;24.90;nan
63556;BME280;49700;48.072;7.800;2023-07-24T11:53:26;98641.22;;;24.67;nan
63556;BME280;49700;48.072;7.800;2023-07-24T11:55:53;98638.78;;;24.52;nan
63556;BME280;49700;48.072;7.800;2023-07-24T11:58:20;98638.38;;;24.42;nan
63556;BME280;49700;48.072;7.800;2023-07-24T12:00:47;98632.00;;;24.36;nan
63556;BME280;49700;48.072;7.800;2023-07-24T12:03:24;98636.72;;;24.41;nan
63556;BME280;49700;48.072;7.800;2023-07-24T12:05:53;98642.31;;;24.46;nan
63556;BME280;49700;48.072;7.800;2023-07-24T12:08:30;98628.47;;;24.42;nan
63556;BME280;49700;48.072;7.800;2023-07-24T12:10:56;98622.50;;;24.34;nan
63556;BME280;49700;48.072;7.800;2023-07-24T12:13:21;98621.06;;;24.24;nan
63556;BME280;49700;48.072;7.800;2023-07-24T12:15:48;98621.09;;;24.18;nan
63556;BME280;49700;48.072;7.800;2023-07-24T12:18:14;98622.16;;;24.03;nan
63556;BME280;49700;48.072;7.800;2023-07-24T12:20:39;98602.53;;;23.96;nan
63556;BME280;49700;48.072;7.800;2023-07-24T12:23:05;98593.25;;;23.92;nan
63556;BME280;49700;48.072;7.800;2023-07-24T12:25:30;98602.75;;;23.88;nan
63556;BME280;49700;48.072;7.800;2023-07-24T12:27:56;98590.59;;;23.85;nan
63556;BME280;49700;48.072;7.800;2023-07-24T12:30:21;98588.53;;;23.81;nan
63556;BME280;49700;48.072;7.800;2023-07-24T12:32:47;98600.50;;;23.85;nan
63556;BME280;49700;48.072;7.800;2023-07-24T12:35:12;98593.47;;;23.97;nan
63556;BME280;49700;48.072;7.800;2023-07-24T12:37:38;98594.69;;;24.15;nan
63556;BME280;49700;48.072;7.800;2023-07-24T12:40:08;98586.41;;;24.23;nan
63556;BME280;49700;48.072;7.800;2023-07-24T12:42:33;98588.66;;;24.26;nan
63556;BME280;49700;48.072;7.800;2023-07-24T12:44:59;98589.06;;;24.29;nan
63556;BME280;49700;48.072;7.800;2023-07-24T12:47:24;98590.91;;;24.29;nan
63556;BME280;49700;48.072;7.800;2023-07-24T12:49:49;98587.84;;;24.25;nan
63556;BME280;49700;48.072;7.800;2023-07-24T12:52:17;98573.81;;;24.23;nan
63556;BME280;49700;48.072;7.800;2023-07-24T12:54:42;98576.28;;;24.25;nan
63556;BME280;49700;48.072;7.800;2023-07-24T12:57:07;98576.06;;;24.26;nan
63556;BME280;49700;48.072;7.800;2023-07-24T12:59:33;98566.56;;;24.24;nan
63556;BME280;49700;48.072;7.800;2023-07-24T13:01:58;98571.13;;;24.17;nan
63556;BME280;49700;48.072;7.800;2023-07-24T13:04:24;98573.63;;;24.05;nan
63556;BME280;49700;48.072;7.800;2023-07-24T13:06:49;98558.81;;;23.96;nan
63556;BME280;49700;48.072;7.800;2023-07-24T13:09:15;98559.22;;;23.93;nan
63556;BME280;49700;48.072;7.800;2023-07-24T13:11:40;98556.13;;;23.96;nan
63556;BME280;49700;48.072;7.800;2023-07-24T13:14:05;98550.97;;;24.01;nan
63556;BME280;49700;48.072;7.800;2023-07-24T13:16:31;98546.19;;;24.03;nan
63556;BME280;49700;48.072;7.800;2023-07-24T13:18:56;98534.03;;;24.00;nan